Ship Status Report: callsign AMOUK35

sailwx.info

Track history (hours):
 
Tides and Currents Weather Stations Pressure Air Temp Water Temp Dewpoint Dewpoint Depression Visibility Wind Speed Wind Dir Waves Ship Positions

Callsign AMOUK35 (name unknown)

Last reported at 2015-Jun-22 11:00 UTC. Time now 2015-Jun-30 14:30 UTC.
Position N 57°36' W 006°48'.
Warning: this ship's position is 8 days out of date.

Barometer 1015.0 mb
Air temperature 10.6 ° C
Dewpoint 6.9 ° C

Date/timePositionNaut miles runAvg speedWind from/ knotsBaromVisibWave heightAir tempDewpointWater temp
2015-Jun-22 11:00N 57°36' W 006°48'7 6.8 1015.0 10.6 6.9
2015-Jun-22 10:00N 57°42' W 006°42'1413.6 1014.6 9.9 7.7
2015-Jun-22 09:00N 57°54' W 006°30'3 3.2 1014.4 9.9 7.5
2015-Jun-22 08:00N 57°54' W 006°24'0 0.0 1013.5 10.8 8.3
2015-Jun-22 07:00N 57°54' W 006°24'6 6.4 1012.8 11.1 8.3
2015-Jun-22 06:00N 57°54' W 006°36'0 0.0 1012.5 10.6 7.9
2015-Jun-22 05:00N 57°54' W 006°36'0 0.0 1011.7 10.2 8.0
2015-Jun-22 04:00N 57°54' W 006°36'0 0.0 1011.1 10.4 8.6
2015-Jun-22 03:00N 57°54' W 006°36'0 0.0 1010.2 10.3 8.6
2015-Jun-22 01:00N 57°54' W 006°36'0 0.0 1009.4 9.7 8.3
2015-Jun-21 23:00N 57°54' W 006°36'0 0.0 1009.6 9.4 7.9
2015-Jun-21 22:00N 57°54' W 006°36'0 0.0 1009.8 9.9 8.2
2015-Jun-21 20:00N 57°54' W 006°36'24 4.0 1009.7 9.9 8.4
2015-Jun-21 14:00N 58°12' W 006°06'1212.0 1009.4 10.4 8.3
2015-Jun-21 13:00N 58°24' W 006°06'23 3.8 1009.3 13.0 9.1
2015-Jun-21 07:00N 58°18' W 006°48'0 0.0 1009.2 9.9 8.6
2015-Jun-21 06:00N 58°18' W 006°48'0 0.0 1009.1 9.7 8.3
2015-Jun-21 05:00N 58°18' W 006°48'0 0.0 1009.2 9.4 8.2
2015-Jun-21 03:00N 58°18' W 006°48'61 1.8 1009.5 9.6 8.2
2015-Jun-19 17:00N 57°18' W 007°12'7 6.8 1020.4 10.9 8.6
2015-Jun-19 16:00N 57°12' W 007°18'7 3.4 1021.0 10.6 8.2
2015-Jun-19 14:00N 57°06' W 007°12'0 0.0 1021.1 10.0 8.8
2015-Jun-19 13:00N 57°06' W 007°12'1111.5 1021.0 10.6 9.3
2015-Jun-19 12:00N 57°00' W 006°54'9 8.9 1021.0 10.1 8.5
2015-Jun-19 11:00N 56°54' W 006°42'29 9.7 1021.0 10.0 8.3
2015-Jun-19 08:00N 56°36' W 006°00'1211.6 1020.4 9.6 8.5
2015-Jun-19 07:00N 56°30' W 005°42'9 8.9 1020.3 9.2 8.2
2015-Jun-19 06:00N 56°24' W 005°30'0 0.0 1020.8 9.1 7.7
2015-Jun-19 05:00N 56°24' W 005°30'0 0.0 1020.6 9.2 7.5
2015-Jun-19 04:00N 56°24' W 005°30'0 0.0 1020.5 9.6 7.5
2015-Jun-19 02:00N 56°24' W 005°30'0 0.0 1020.9 10.0 7.3
2015-Jun-18 23:00N 56°24' W 005°30'0 0.0 1020.6 10.6 7.0
2015-Jun-18 22:00N 56°24' W 005°30'0 0.0 1020.4 10.6 7.4
2015-Jun-18 19:00N 56°24' W 005°30'0 0.0 1019.8 10.8 8.5
2015-Jun-18 18:00N 56°24' W 005°30'0 0.0 1019.5 11.0 8.5
2015-Jun-18 16:00N 56°24' W 005°30'0 0.0 1019.9 10.1 8.8
2015-Jun-18 14:00N 56°24' W 005°30'0 0.0 1020.0 10.8 8.4
2015-Jun-18 12:00N 56°24' W 005°30'0 0.0 1019.9 10.9 8.0
2015-Jun-18 11:00N 56°24' W 005°30'0 0.0 1019.7 10.9 7.4
2015-Jun-18 08:00N 56°24' W 005°30'0 0.0 1019.2 10.4 7.3
2015-Jun-18 05:00N 56°24' W 005°30'0 0.0 1018.9 9.7 7.0
2015-Jun-17 19:00N 56°24' W 005°30'0 0.0 1018.5 11.1 5.2
2015-Jun-17 15:00N 56°24' W 005°30'0 0.0 1017.7 11.8 8.2
2015-Jun-17 14:00N 56°24' W 005°30'0 0.0 1017.2 12.5 8.0
2015-Jun-17 11:00N 56°24' W 005°30'0 0.0 1016.4 12.5 8.9
2015-Jun-17 07:00N 56°24' W 005°30'0 0.0 1015.9 11.510.5
2015-Jun-17 06:00N 56°24' W 005°30'0 0.0 1016.4 11.410.4
2015-Jun-17 04:00N 56°24' W 005°30'0 0.0 1016.7 11.610.6
2015-Jun-17 03:00N 56°24' W 005°30'0 0.0 1017.3 11.510.6
2015-Jun-17 00:00N 56°24' W 005°30'0 0.0 1017.6 12.311.3
2015-Jun-16 23:00N 56°24' W 005°30'20 2.9 1017.8 12.711.6
2015-Jun-16 16:00N 56°36' W 006°00'18 8.9 1018.1 12.811.2
2015-Jun-16 14:00N 56°48' W 006°24'29 9.7 1018.9 11.110.2
2015-Jun-16 11:00N 57°12' W 006°54'2010.2 1018.8 10.6 9.6
2015-Jun-16 09:00N 57°30' W 007°12'0 0.0 1018.3 10.3 9.2
2015-Jun-16 08:00N 57°30' W 007°12'0 0.0 1019.0 10.5 9.3
2015-Jun-16 06:00N 57°30' W 007°12'0 0.0 1019.5 10.6 9.0
2015-Jun-16 05:00N 57°30' W 007°12'0 0.0 1019.6 10.5 9.0
2015-Jun-16 04:00N 57°30' W 007°12'0 0.0 1019.7 10.4 8.7
2015-Jun-16 00:00N 57°30' W 007°12'0 0.0 1021.3 10.0 7.6
2015-Jun-15 23:00N 57°30' W 007°12'0 0.0 1021.6 9.7 7.7
2015-Jun-15 22:00N 57°30' W 007°12'0 0.0 1021.7 9.4 6.1
2015-Jun-15 21:00N 57°30' W 007°12'0 0.0 1021.8 9.6 5.1
2015-Jun-15 18:00N 57°30' W 007°12'0 0.0 1021.2 9.4 3.2
2015-Jun-15 17:00N 57°30' W 007°12'0 0.0 1021.1 9.4 4.1
2015-Jun-15 16:00N 57°30' W 007°12'26 5.3 1021.2 9.9 5.4
2015-Jun-15 11:00N 57°48' W 006°36'7 6.8 1022.0 9.5 5.3
2015-Jun-15 10:00N 57°54' W 006°30'9 8.7 1021.7 10.7 5.8
2015-Jun-15 09:00N 58°00' W 006°18'1212.4 1021.7 9.6 5.1
2015-Jun-15 08:00N 58°12' W 006°24'0 0.0 1021.5 9.0 4.4
2015-Jun-15 06:00N 58°12' W 006°24'0 0.0 1020.8 7.9 5.5
2015-Jun-15 04:00N 58°12' W 006°24'0 0.0 1020.6 5.2 3.3
2015-Jun-15 00:00N 58°12' W 006°24'0 0.0 1021.3 5.3 2.9
2015-Jun-14 20:00N 58°12' W 006°24'0 0.0 1020.2 9.6 4.4
2015-Jun-14 18:00N 58°12' W 006°24'0 0.0 1019.7 10.3 3.3
2015-Jun-14 16:00N 58°12' W 006°24'0 0.0 1019.6 10.1 3.6
2015-Jun-14 15:00N 58°12' W 006°24'0 0.0 1019.6 10.2 3.4
2015-Jun-14 12:00N 58°12' W 006°24'0 0.0 1019.1 10.0 2.7
2015-Jun-14 11:00N 58°12' W 006°24'0 0.0 1018.9 10.1 2.5
2015-Jun-14 10:00N 58°12' W 006°24'0 0.0 1018.8 9.8 2.5
2015-Jun-14 07:00N 58°12' W 006°24'0 0.0 1017.9 8.4 1.4
2015-Jun-14 06:00N 58°12' W 006°24'0 0.0 1017.6 6.8 2.1
2015-Jun-14 03:00N 58°12' W 006°24'0 0.0 1017.3 4.5 0.8
2015-Jun-14 00:00N 58°12' W 006°24'0 0.0 1017.4 4.4 0.6
2015-Jun-13 23:00N 58°12' W 006°24'0 0.0 1017.3 4.9 0.6
2015-Jun-13 22:00N 58°12' W 006°24'0 0.0 1017.1 5.9 0.9
2015-Jun-13 20:00N 58°12' W 006°24'0 0.0 1016.2 8.9 1.2
2015-Jun-13 19:00N 58°12' W 006°24'0 0.0 1015.9 8.5 1.4
2015-Jun-13 17:00N 58°12' W 006°24'0 0.0 1015.2 10.1 3.3
2015-Jun-13 16:00N 58°12' W 006°24'0 0.0 1015.0 10.8 3.7
2015-Jun-13 14:00N 58°12' W 006°24'0 0.0 1014.8 9.9 3.9
2015-Jun-13 13:00N 58°12' W 006°24'18 6.1 1014.6 8.7 3.7
2015-Jun-13 10:00N 57°54' W 006°30'6 2.1 1013.4 8.0 5.8
2015-Jun-13 07:00N 57°54' W 006°42'0 0.0 1013.0 9.0 5.4
2015-Jun-13 06:00N 57°54' W 006°42'0 0.0 1012.6 8.9 5.1
2015-Jun-13 05:00N 57°54' W 006°42'0 0.0 1012.5 8.8 4.4
2015-Jun-13 04:00N 57°54' W 006°42'0 0.0 1012.4 8.8 3.9
2015-Jun-13 03:00N 57°54' W 006°42'0 0.0 1012.7 8.7 4.0
2015-Jun-13 02:00N 57°54' W 006°42'0 0.0 1013.1 8.7 4.3
2015-Jun-13 01:00N 57°54' W 006°42'0 0.0 1013.4 8.8 4.7
2015-Jun-13 00:00N 57°54' W 006°42'0 0.0 1013.9 8.7 4.5
2015-Jun-12 23:00N 57°54' W 006°42'0 0.0 1014.3 8.9 4.8
2015-Jun-12 22:00N 57°54' W 006°42'0 0.0 1014.5 8.8 4.9
2015-Jun-12 21:00N 57°54' W 006°42'0 0.0 1014.5 9.1 4.5
2015-Jun-12 20:00N 57°54' W 006°42'0 0.0 1014.3 9.5 4.0
2015-Jun-12 19:00N 57°54' W 006°42'0 0.0 1014.6 10.1 4.5
2015-Jun-12 18:00N 57°54' W 006°42'0 0.0 1014.5 10.0 5.9
2015-Jun-12 17:00N 57°54' W 006°42'0 0.0 1014.5 11.0 5.1
2015-Jun-12 16:00N 57°54' W 006°42'1413.6 1014.7 10.1 6.8
2015-Jun-12 15:00N 57°42' W 006°54'6 6.4 1014.8 11.6 5.8
2015-Jun-12 14:00N 57°42' W 007°06'   1015.5 11.4 5.5
Track history (hours):
 
Tides and Currents Weather Stations Pressure Air Temp Water Temp Dewpoint Dewpoint Depression Visibility Wind Speed Wind Dir Waves Ship Positions

Callsign AMOUK35 (name unknown)

Last reported at 2015-Jun-22 11:00 UTC. Time now 2015-Jun-30 14:30 UTC.
Position N 57°36' W 006°48'.
Warning: this ship's position is 8 days out of date.

Barometer 1015.0 mb
Air temperature 10.6 ° C
Dewpoint 6.9 ° C

Date/timePositionNaut miles runAvg speedWind from/ knotsBaromVisibWave heightAir tempDewpointWater temp
2015-Jun-22 11:00N 57°36' W 006°48'7 6.8 1015.0 10.6 6.9
2015-Jun-22 10:00N 57°42' W 006°42'1413.6 1014.6 9.9 7.7
2015-Jun-22 09:00N 57°54' W 006°30'3 3.2 1014.4 9.9 7.5
2015-Jun-22 08:00N 57°54' W 006°24'0 0.0 1013.5 10.8 8.3
2015-Jun-22 07:00N 57°54' W 006°24'6 6.4 1012.8 11.1 8.3
2015-Jun-22 06:00N 57°54' W 006°36'0 0.0 1012.5 10.6 7.9
2015-Jun-22 05:00N 57°54' W 006°36'0 0.0 1011.7 10.2 8.0
2015-Jun-22 04:00N 57°54' W 006°36'0 0.0 1011.1 10.4 8.6
2015-Jun-22 03:00N 57°54' W 006°36'0 0.0 1010.2 10.3 8.6
2015-Jun-22 01:00N 57°54' W 006°36'0 0.0 1009.4 9.7 8.3
2015-Jun-21 23:00N 57°54' W 006°36'0 0.0 1009.6 9.4 7.9
2015-Jun-21 22:00N 57°54' W 006°36'0 0.0 1009.8 9.9 8.2
2015-Jun-21 20:00N 57°54' W 006°36'24 4.0 1009.7 9.9 8.4
2015-Jun-21 14:00N 58°12' W 006°06'1212.0 1009.4 10.4 8.3
2015-Jun-21 13:00N 58°24' W 006°06'23 3.8 1009.3 13.0 9.1
2015-Jun-21 07:00N 58°18' W 006°48'0 0.0 1009.2 9.9 8.6
2015-Jun-21 06:00N 58°18' W 006°48'0 0.0 1009.1 9.7 8.3
2015-Jun-21 05:00N 58°18' W 006°48'0 0.0 1009.2 9.4 8.2
2015-Jun-21 03:00N 58°18' W 006°48'61 1.8 1009.5 9.6 8.2
2015-Jun-19 17:00N 57°18' W 007°12'7 6.8 1020.4 10.9 8.6
2015-Jun-19 16:00N 57°12' W 007°18'7 3.4 1021.0 10.6 8.2
2015-Jun-19 14:00N 57°06' W 007°12'0 0.0 1021.1 10.0 8.8
2015-Jun-19 13:00N 57°06' W 007°12'1111.5 1021.0 10.6 9.3
2015-Jun-19 12:00N 57°00' W 006°54'9 8.9 1021.0 10.1 8.5
2015-Jun-19 11:00N 56°54' W 006°42'29 9.7 1021.0 10.0 8.3
2015-Jun-19 08:00N 56°36' W 006°00'1211.6 1020.4 9.6 8.5
2015-Jun-19 07:00N 56°30' W 005°42'9 8.9 1020.3 9.2 8.2
2015-Jun-19 06:00N 56°24' W 005°30'0 0.0 1020.8 9.1 7.7
2015-Jun-19 05:00N 56°24' W 005°30'0 0.0 1020.6 9.2 7.5
2015-Jun-19 04:00N 56°24' W 005°30'0 0.0 1020.5 9.6 7.5
2015-Jun-19 02:00N 56°24' W 005°30'0 0.0 1020.9 10.0 7.3
2015-Jun-18 23:00N 56°24' W 005°30'0 0.0 1020.6 10.6 7.0
2015-Jun-18 22:00N 56°24' W 005°30'0 0.0 1020.4 10.6 7.4
2015-Jun-18 19:00N 56°24' W 005°30'0 0.0 1019.8 10.8 8.5
2015-Jun-18 18:00N 56°24' W 005°30'0 0.0 1019.5 11.0 8.5
2015-Jun-18 16:00N 56°24' W 005°30'0 0.0 1019.9 10.1 8.8
2015-Jun-18 14:00N 56°24' W 005°30'0 0.0 1020.0 10.8 8.4
2015-Jun-18 12:00N 56°24' W 005°30'0 0.0 1019.9 10.9 8.0
2015-Jun-18 11:00N 56°24' W 005°30'0 0.0 1019.7 10.9 7.4
2015-Jun-18 08:00N 56°24' W 005°30'0 0.0 1019.2 10.4 7.3
2015-Jun-18 05:00N 56°24' W 005°30'0 0.0 1018.9 9.7 7.0
2015-Jun-17 19:00N 56°24' W 005°30'0 0.0 1018.5 11.1 5.2
2015-Jun-17 15:00N 56°24' W 005°30'0 0.0 1017.7 11.8 8.2
2015-Jun-17 14:00N 56°24' W 005°30'0 0.0 1017.2 12.5 8.0
2015-Jun-17 11:00N 56°24' W 005°30'0 0.0 1016.4 12.5 8.9
2015-Jun-17 07:00N 56°24' W 005°30'0 0.0 1015.9 11.510.5
2015-Jun-17 06:00N 56°24' W 005°30'0 0.0 1016.4 11.410.4
2015-Jun-17 04:00N 56°24' W 005°30'0 0.0 1016.7 11.610.6
2015-Jun-17 03:00N 56°24' W 005°30'0 0.0 1017.3 11.510.6
2015-Jun-17 00:00N 56°24' W 005°30'0 0.0 1017.6 12.311.3
2015-Jun-16 23:00N 56°24' W 005°30'20 2.9 1017.8 12.711.6
2015-Jun-16 16:00N 56°36' W 006°00'18 8.9 1018.1 12.811.2
2015-Jun-16 14:00N 56°48' W 006°24'29 9.7 1018.9 11.110.2
2015-Jun-16 11:00N 57°12' W 006°54'2010.2 1018.8 10.6 9.6
2015-Jun-16 09:00N 57°30' W 007°12'0 0.0 1018.3 10.3 9.2
2015-Jun-16 08:00N 57°30' W 007°12'0 0.0 1019.0 10.5 9.3
2015-Jun-16 06:00N 57°30' W 007°12'0 0.0 1019.5 10.6 9.0
2015-Jun-16 05:00N 57°30' W 007°12'0 0.0 1019.6 10.5 9.0
2015-Jun-16 04:00N 57°30' W 007°12'0 0.0 1019.7 10.4 8.7
2015-Jun-16 00:00N 57°30' W 007°12'0 0.0 1021.3 10.0 7.6
2015-Jun-15 23:00N 57°30' W 007°12'0 0.0 1021.6 9.7 7.7
2015-Jun-15 22:00N 57°30' W 007°12'0 0.0 1021.7 9.4 6.1
2015-Jun-15 21:00N 57°30' W 007°12'0 0.0 1021.8 9.6 5.1
2015-Jun-15 18:00N 57°30' W 007°12'0 0.0 1021.2 9.4 3.2
2015-Jun-15 17:00N 57°30' W 007°12'0 0.0 1021.1 9.4 4.1
2015-Jun-15 16:00N 57°30' W 007°12'26 5.3 1021.2 9.9 5.4
2015-Jun-15 11:00N 57°48' W 006°36'7 6.8 1022.0 9.5 5.3
2015-Jun-15 10:00N 57°54' W 006°30'9 8.7 1021.7 10.7 5.8
2015-Jun-15 09:00N 58°00' W 006°18'1212.4 1021.7 9.6 5.1
2015-Jun-15 08:00N 58°12' W 006°24'0 0.0 1021.5 9.0 4.4
2015-Jun-15 06:00N 58°12' W 006°24'0 0.0 1020.8 7.9 5.5
2015-Jun-15 04:00N 58°12' W 006°24'0 0.0 1020.6 5.2 3.3
2015-Jun-15 00:00N 58°12' W 006°24'0 0.0 1021.3 5.3 2.9
2015-Jun-14 20:00N 58°12' W 006°24'0 0.0 1020.2 9.6 4.4
2015-Jun-14 18:00N 58°12' W 006°24'0 0.0 1019.7 10.3 3.3
2015-Jun-14 16:00N 58°12' W 006°24'0 0.0 1019.6 10.1 3.6
2015-Jun-14 15:00N 58°12' W 006°24'0 0.0 1019.6 10.2 3.4
2015-Jun-14 12:00N 58°12' W 006°24'0 0.0 1019.1 10.0 2.7
2015-Jun-14 11:00N 58°12' W 006°24'0 0.0 1018.9 10.1 2.5
2015-Jun-14 10:00N 58°12' W 006°24'0 0.0 1018.8 9.8 2.5
2015-Jun-14 07:00N 58°12' W 006°24'0 0.0 1017.9 8.4 1.4
2015-Jun-14 06:00N 58°12' W 006°24'0 0.0 1017.6 6.8 2.1
2015-Jun-14 03:00N 58°12' W 006°24'0 0.0 1017.3 4.5 0.8
2015-Jun-14 00:00N 58°12' W 006°24'0 0.0 1017.4 4.4 0.6
2015-Jun-13 23:00N 58°12' W 006°24'0 0.0 1017.3 4.9 0.6
2015-Jun-13 22:00N 58°12' W 006°24'0 0.0 1017.1 5.9 0.9
2015-Jun-13 20:00N 58°12' W 006°24'0 0.0 1016.2 8.9 1.2
2015-Jun-13 19:00N 58°12' W 006°24'0 0.0 1015.9 8.5 1.4
2015-Jun-13 17:00N 58°12' W 006°24'0 0.0 1015.2 10.1 3.3
2015-Jun-13 16:00N 58°12' W 006°24'0 0.0 1015.0 10.8 3.7
2015-Jun-13 14:00N 58°12' W 006°24'0 0.0 1014.8 9.9 3.9
2015-Jun-13 13:00N 58°12' W 006°24'18 6.1 1014.6 8.7 3.7
2015-Jun-13 10:00N 57°54' W 006°30'6 2.1 1013.4 8.0 5.8
2015-Jun-13 07:00N 57°54' W 006°42'0 0.0 1013.0 9.0 5.4
2015-Jun-13 06:00N 57°54' W 006°42'0 0.0 1012.6 8.9 5.1
2015-Jun-13 05:00N 57°54' W 006°42'0 0.0 1012.5 8.8 4.4
2015-Jun-13 04:00N 57°54' W 006°42'0 0.0 1012.4 8.8 3.9
2015-Jun-13 03:00N 57°54' W 006°42'0 0.0 1012.7 8.7 4.0
2015-Jun-13 02:00N 57°54' W 006°42'0 0.0 1013.1 8.7 4.3
2015-Jun-13 01:00N 57°54' W 006°42'0 0.0 1013.4 8.8 4.7
2015-Jun-13 00:00N 57°54' W 006°42'0 0.0 1013.9 8.7 4.5
2015-Jun-12 23:00N 57°54' W 006°42'0 0.0 1014.3 8.9 4.8
2015-Jun-12 22:00N 57°54' W 006°42'0 0.0 1014.5 8.8 4.9
2015-Jun-12 21:00N 57°54' W 006°42'0 0.0 1014.5 9.1 4.5
2015-Jun-12 20:00N 57°54' W 006°42'0 0.0 1014.3 9.5 4.0
2015-Jun-12 19:00N 57°54' W 006°42'0 0.0 1014.6 10.1 4.5
2015-Jun-12 18:00N 57°54' W 006°42'0 0.0 1014.5 10.0 5.9
2015-Jun-12 17:00N 57°54' W 006°42'0 0.0 1014.5 11.0 5.1
2015-Jun-12 16:00N 57°54' W 006°42'1413.6 1014.7 10.1 6.8
2015-Jun-12 15:00N 57°42' W 006°54'6 6.4 1014.8 11.6 5.8
2015-Jun-12 14:00N 57°42' W 007°06'   1015.5 11.4 5.5

Dump ship's entire track history